createdAt,value
2019-04-16T00:00:59.568Z,17.53
2019-04-16T00:03:28.867Z,16.80
2019-04-16T00:06:02.533Z,21.57
2019-04-16T00:08:33.508Z,18.90
2019-04-16T00:11:04.685Z,17.80
2019-04-16T00:13:35.626Z,14.87
2019-04-16T00:16:05.165Z,19.83
2019-04-16T00:18:34.543Z,20.00
2019-04-16T00:21:06.461Z,15.20
2019-04-16T00:23:46.621Z,18.30
2019-04-16T00:26:14.928Z,19.63
2019-04-16T00:28:44.300Z,19.17
2019-04-16T00:31:13.593Z,17.73
2019-04-16T00:33:43.536Z,18.97
2019-04-16T00:36:15.413Z,16.97
2019-04-16T00:38:43.941Z,19.37
2019-04-16T00:41:13.292Z,17.47
2019-04-16T00:43:44.093Z,18.53
2019-04-16T00:46:13.670Z,17.47
2019-04-16T00:48:42.946Z,15.37
2019-04-16T00:51:12.222Z,15.43
2019-04-16T00:53:41.517Z,16.63
2019-04-16T00:56:13.407Z,22.67
2019-04-16T00:58:41.779Z,18.10
2019-04-16T01:01:11.193Z,18.83
2019-04-16T01:03:40.504Z,17.30
2019-04-16T01:06:09.768Z,16.30
2019-04-16T01:08:39.072Z,17.90
2019-04-16T01:11:08.380Z,22.80
2019-04-16T01:13:38.761Z,18.33
2019-04-16T01:16:08.107Z,18.97
2019-04-16T01:18:38.780Z,24.23
2019-04-16T01:21:08.361Z,19.60
2019-04-16T01:23:39.278Z,17.40
2019-04-16T01:26:09.513Z,18.93
2019-04-16T01:28:40.536Z,20.77
2019-04-16T01:31:27.926Z,19.37
2019-04-16T01:33:58.872Z,22.30
2019-04-16T01:36:38.803Z,18.50
2019-04-16T01:39:17.590Z,19.13
2019-04-16T01:41:40.722Z,19.67
2019-04-16T01:44:09.997Z,16.13
2019-04-16T01:46:39.281Z,17.97
2019-04-16T01:49:10.259Z,16.73
2019-04-16T01:51:39.532Z,16.47
2019-04-16T01:54:08.868Z,21.90
2019-04-16T01:56:38.217Z,18.03
2019-04-16T01:59:07.527Z,21.63
2019-04-16T02:01:36.802Z,20.80
2019-04-16T02:04:06.074Z,22.17
2019-04-16T02:06:35.365Z,19.97
2019-04-16T02:09:06.407Z,22.03
2019-04-16T02:11:35.689Z,23.53
2019-04-16T02:14:05.242Z,21.83
2019-04-16T02:16:34.511Z,17.90
2019-04-16T02:19:03.971Z,20.50
2019-04-16T02:21:33.242Z,19.03
2019-04-16T02:24:02.511Z,18.53
2019-04-16T02:26:31.798Z,18.87
2019-04-16T02:29:01.288Z,15.47
2019-04-16T02:31:30.630Z,19.60
2019-04-16T02:34:01.016Z,20.40
2019-04-16T02:36:31.332Z,17.63
2019-04-16T02:39:00.620Z,26.20
2019-04-16T02:41:31.518Z,18.03
2019-04-16T02:44:00.903Z,19.70
2019-04-16T02:46:32.366Z,20.53
2019-04-16T02:49:01.141Z,20.47
2019-04-16T02:51:42.142Z,19.50
2019-04-16T02:54:17.257Z,18.83
2019-04-16T02:57:06.565Z,20.00
2019-04-16T02:59:45.916Z,16.83
2019-04-16T03:02:23.064Z,16.63
2019-04-16T03:04:58.419Z,18.67
2019-04-16T03:07:32.814Z,21.47
2019-04-16T03:10:02.775Z,18.37
2019-04-16T03:12:32.146Z,19.10
2019-04-16T03:15:02.461Z,24.87
2019-04-16T03:17:39.617Z,19.23
2019-04-16T03:20:09.996Z,20.67
2019-04-16T03:22:39.298Z,21.57
2019-04-16T03:25:12.533Z,16.43
2019-04-16T03:27:39.971Z,21.87
2019-04-16T03:30:09.421Z,17.60
2019-04-16T03:32:49.253Z,20.87
2019-04-16T03:35:18.581Z,22.40
2019-04-16T03:37:47.880Z,21.03
2019-04-16T03:40:18.768Z,19.43
2019-04-16T03:42:48.142Z,19.87
2019-04-16T03:45:17.451Z,24.40
2019-04-16T03:47:50.893Z,21.17
2019-04-16T03:50:17.692Z,20.20
2019-04-16T03:52:47.014Z,20.70
2019-04-16T03:55:16.391Z,24.00
2019-04-16T03:57:45.669Z,20.90
2019-04-16T04:00:15.301Z,22.23
2019-04-16T04:02:44.603Z,27.70
2019-04-16T04:05:13.889Z,19.20
2019-04-16T04:07:44.233Z,24.07
2019-04-16T04:10:29.522Z,19.43
2019-04-16T04:12:49.099Z,24.93
2019-04-16T04:15:18.445Z,20.77
2019-04-16T04:17:47.999Z,20.63
2019-04-16T04:20:18.090Z,22.13
2019-04-16T04:22:48.462Z,26.17
2019-04-16T04:25:17.745Z,24.20
2019-04-16T04:27:47.713Z,23.77
2019-04-16T04:30:18.858Z,20.37
2019-04-16T04:32:48.120Z,23.23
2019-04-16T04:35:20.910Z,24.93
2019-04-16T04:37:49.340Z,24.30
2019-04-16T04:40:18.616Z,22.97
2019-04-16T04:42:47.889Z,22.40
2019-04-16T04:45:17.192Z,25.20
2019-04-16T04:47:51.250Z,26.33
2019-04-16T04:50:17.457Z,26.30
2019-04-16T04:52:46.826Z,26.33
2019-04-16T04:55:16.297Z,34.20
2019-04-16T04:57:45.584Z,26.33
2019-04-16T05:00:15.022Z,22.90
2019-04-16T05:02:44.442Z,21.23
2019-04-16T05:05:24.088Z,24.43
2019-04-16T05:07:50.162Z,24.40
2019-04-16T05:10:19.607Z,23.50
2019-04-16T05:12:52.606Z,22.30
2019-04-16T05:15:20.046Z,27.43
2019-04-16T05:17:49.387Z,25.03
2019-04-16T05:20:18.697Z,25.03
2019-04-16T05:22:50.511Z,23.40
2019-04-16T05:25:19.042Z,29.33
2019-04-16T05:27:48.349Z,26.00
2019-04-16T05:30:20.761Z,21.67
2019-04-16T05:32:48.651Z,27.30
2019-04-16T05:35:17.961Z,23.80
2019-04-16T05:37:48.513Z,21.73
2019-04-16T05:40:18.524Z,21.60
2019-04-16T05:42:47.928Z,26.37
2019-04-16T05:45:17.325Z,20.17
2019-04-16T05:47:49.028Z,23.60
2019-04-16T05:50:18.665Z,20.83
2019-04-16T05:52:47.976Z,25.17
2019-04-16T05:55:22.022Z,25.37
2019-04-16T05:57:57.871Z,25.13
2019-04-16T06:00:42.417Z,28.27
2019-04-16T06:03:11.808Z,23.30
2019-04-16T06:05:43.161Z,24.60
2019-04-16T06:08:13.425Z,23.40
2019-04-16T06:10:42.709Z,29.20
2019-04-16T06:13:28.947Z,21.67
2019-04-16T06:16:05.533Z,31.77
2019-04-16T06:18:51.537Z,25.57
2019-04-16T06:21:39.043Z,28.87
2019-04-16T06:24:19.045Z,28.93
2019-04-16T06:26:52.878Z,22.60
2019-04-16T06:29:29.019Z,31.97
2019-04-16T06:32:02.285Z,21.60
2019-04-16T06:34:33.206Z,30.20
2019-04-16T06:37:06.570Z,24.70
2019-04-16T06:39:46.351Z,25.63
2019-04-16T06:42:22.516Z,24.10
2019-04-16T06:44:55.630Z,21.07
2019-04-16T06:47:36.187Z,30.00
2019-04-16T06:50:10.215Z,28.30
2019-04-16T06:52:41.116Z,21.73
2019-04-16T06:55:12.039Z,24.77
2019-04-16T06:57:58.016Z,22.23
2019-04-16T07:00:35.283Z,21.03
2019-04-16T07:03:07.705Z,27.43
2019-04-16T07:05:41.793Z,24.13
2019-04-16T07:08:18.413Z,22.70
2019-04-16T07:10:57.180Z,22.37
2019-04-16T07:13:27.534Z,24.27
2019-04-16T07:15:57.805Z,24.47
2019-04-16T07:18:27.364Z,25.90
2019-04-16T07:20:56.781Z,28.23
2019-04-16T07:23:26.305Z,25.77
2019-04-16T07:25:55.775Z,21.67
2019-04-16T07:28:27.010Z,21.10
2019-04-16T07:31:00.802Z,22.27
2019-04-16T07:33:43.608Z,27.43
2019-04-16T07:36:27.761Z,20.90
2019-04-16T07:39:13.378Z,21.27
2019-04-16T07:42:09.852Z,25.00
2019-04-16T07:44:39.305Z,24.60
2019-04-16T07:47:19.830Z,21.93
2019-04-16T07:49:59.997Z,19.17
2019-04-16T07:52:34.312Z,21.00
2019-04-16T07:55:08.908Z,20.00
2019-04-16T07:57:38.192Z,29.90
2019-04-16T08:00:09.918Z,26.37
2019-04-16T08:02:39.276Z,26.47
2019-04-16T08:05:09.762Z,21.10
2019-04-16T08:07:39.270Z,27.80
2019-04-16T08:10:08.702Z,26.13
2019-04-16T08:12:42.066Z,26.20
2019-04-16T08:15:14.326Z,24.83
2019-04-16T08:17:41.647Z,25.93
2019-04-16T08:20:11.190Z,28.10
2019-04-16T08:22:40.511Z,26.73
2019-04-16T08:25:09.810Z,24.37
2019-04-16T08:27:40.201Z,22.33
2019-04-16T08:30:11.351Z,23.30
2019-04-16T08:32:40.761Z,23.63
2019-04-16T08:35:10.224Z,24.70
2019-04-16T08:37:48.922Z,26.03
2019-04-16T08:40:12.219Z,24.50
2019-04-16T08:42:44.649Z,22.93
2019-04-16T08:45:12.909Z,29.37
2019-04-16T08:47:44.968Z,29.20
2019-04-16T08:50:13.308Z,24.97
2019-04-16T08:52:42.676Z,24.23
2019-04-16T08:55:11.946Z,31.93
2019-04-16T08:57:41.232Z,22.47
2019-04-16T09:00:15.201Z,19.53
2019-04-16T09:02:43.209Z,25.10
2019-04-16T09:05:13.665Z,21.23
2019-04-16T09:07:43.029Z,25.03
2019-04-16T09:10:19.291Z,22.63
2019-04-16T09:13:02.063Z,22.67
2019-04-16T09:15:28.844Z,22.37
2019-04-16T09:17:59.773Z,25.73
2019-04-16T09:20:30.689Z,20.20
2019-04-16T09:23:00.058Z,30.33
2019-04-16T09:25:36.812Z,20.87
2019-04-16T09:28:23.801Z,22.97
2019-04-16T09:30:58.778Z,26.03
2019-04-16T09:33:38.670Z,23.37
2019-04-16T09:36:12.489Z,19.63
2019-04-16T09:38:45.582Z,24.00
2019-04-16T09:41:31.371Z,19.27
2019-04-16T09:44:01.336Z,22.03
2019-04-16T09:46:50.509Z,22.40
2019-04-16T09:49:04.778Z,23.00
2019-04-16T09:51:32.936Z,24.23
2019-04-16T09:54:02.226Z,30.67
2019-04-16T09:56:31.568Z,22.73
2019-04-16T09:59:04.130Z,18.97
2019-04-16T10:01:37.748Z,22.80
2019-04-16T10:04:08.687Z,21.20
2019-04-16T10:06:37.970Z,21.10
2019-04-16T10:09:07.626Z,21.33
2019-04-16T10:11:37.985Z,18.97
2019-04-16T10:14:07.344Z,21.07
2019-04-16T10:16:36.609Z,20.37
2019-04-16T10:19:08.264Z,21.53
2019-04-16T10:21:36.962Z,20.80
2019-04-16T10:24:07.968Z,25.20
2019-04-16T10:26:37.234Z,21.03
2019-04-16T10:29:08.159Z,22.07
2019-04-16T10:31:37.470Z,24.77
2019-04-16T10:34:06.739Z,19.13
2019-04-16T10:36:38.036Z,23.43
2019-04-16T10:39:09.622Z,18.00
2019-04-16T10:41:46.309Z,23.13
2019-04-16T10:44:32.232Z,19.57
2019-04-16T10:47:12.545Z,22.53
2019-04-16T10:50:00.126Z,14.57
2019-04-16T10:52:33.763Z,15.20
2019-04-16T10:55:04.963Z,15.67
2019-04-16T10:57:38.678Z,20.60
2019-04-16T11:00:13.406Z,16.57
2019-04-16T11:02:44.321Z,17.27
2019-04-16T11:05:25.073Z,18.70
2019-04-16T11:07:56.021Z,22.67
2019-04-16T11:10:25.427Z,18.87
2019-04-16T11:12:54.701Z,13.17
2019-04-16T11:15:25.646Z,14.87
2019-04-16T11:17:54.997Z,14.53
2019-04-16T11:20:24.950Z,13.27
2019-04-16T11:22:54.264Z,14.77
2019-04-16T11:25:23.540Z,18.43
2019-04-16T11:27:52.855Z,16.47
2019-04-16T11:30:32.650Z,15.40
2019-04-16T11:33:02.002Z,14.13
2019-04-16T11:35:31.418Z,15.23
2019-04-16T11:38:00.735Z,17.43
2019-04-16T11:40:30.074Z,20.33
2019-04-16T11:42:59.355Z,23.27
2019-04-16T11:45:30.822Z,21.37
2019-04-16T11:48:00.183Z,18.17
2019-04-16T11:50:29.509Z,21.03
2019-04-16T11:52:58.971Z,19.73
2019-04-16T11:55:28.266Z,21.00
2019-04-16T11:57:57.737Z,32.97
2019-04-16T12:00:34.773Z,25.40
2019-04-16T12:03:05.837Z,28.30
2019-04-16T12:05:53.648Z,28.23
2019-04-16T12:08:40.771Z,24.97
2019-04-16T12:11:30.013Z,29.73
2019-04-16T12:14:29.638Z,25.83
2019-04-16T12:17:06.327Z,25.47
2019-04-16T12:19:53.658Z,33.83
2019-04-16T12:22:24.578Z,29.57
2019-04-16T12:24:55.541Z,24.97
2019-04-16T12:27:35.706Z,35.63
2019-04-16T12:30:26.823Z,24.93
2019-04-16T12:33:07.515Z,28.80
2019-04-16T12:35:45.346Z,27.30
2019-04-16T12:38:28.814Z,28.43
2019-04-16T12:41:17.703Z,29.80
2019-04-16T12:43:57.606Z,25.93
2019-04-16T12:46:37.826Z,31.77
2019-04-16T12:49:11.505Z,33.13
2019-04-16T12:51:48.556Z,32.80
2019-04-16T12:54:31.518Z,28.73
2019-04-16T12:57:17.426Z,26.60
2019-04-16T12:59:48.840Z,30.37
2019-04-16T13:02:19.897Z,31.83
2019-04-16T13:04:59.562Z,31.47
2019-04-16T13:07:39.039Z,29.57
2019-04-16T13:10:20.966Z,36.67
2019-04-16T13:12:51.882Z,33.53
2019-04-16T13:15:39.603Z,30.03
2019-04-16T13:18:10.550Z,32.07
2019-04-16T13:20:56.953Z,30.13
2019-04-16T13:23:28.529Z,30.47
2019-04-16T13:26:05.445Z,30.03
2019-04-16T13:28:34.810Z,25.53
2019-04-16T13:31:04.163Z,25.43
2019-04-16T13:33:33.454Z,21.00
2019-04-16T13:36:02.757Z,20.47
2019-04-16T13:38:33.680Z,24.03
2019-04-16T13:41:02.962Z,21.33
2019-04-16T13:43:51.962Z,19.10
2019-04-16T13:46:21.380Z,14.63
2019-04-16T13:48:52.408Z,14.83
2019-04-16T13:51:23.351Z,20.00
2019-04-16T13:54:02.965Z,21.43
2019-04-16T13:56:39.797Z,18.13
2019-04-16T13:59:10.713Z,20.73
2019-04-16T14:01:59.149Z,17.70
2019-04-16T14:04:31.664Z,17.43
2019-04-16T14:06:59.553Z,16.63
2019-04-16T14:09:28.832Z,22.23
2019-04-16T14:11:58.194Z,20.40
2019-04-16T14:14:27.465Z,14.17
2019-04-16T14:16:56.753Z,15.33
2019-04-16T14:19:26.018Z,22.53
2019-04-16T14:21:55.325Z,14.63
2019-04-16T14:24:24.594Z,18.13
2019-04-16T14:26:53.882Z,18.73
2019-04-16T14:29:24.887Z,17.93
2019-04-16T14:31:54.154Z,17.90
2019-04-16T14:34:31.079Z,15.87
2019-04-16T14:37:00.389Z,16.73
2019-04-16T14:39:37.254Z,15.80
2019-04-16T14:42:06.695Z,14.83
2019-04-16T14:44:49.606Z,19.03
2019-04-16T14:47:18.911Z,15.23
2019-04-16T14:49:50.851Z,18.40
2019-04-16T14:52:19.234Z,19.50
2019-04-16T14:54:52.844Z,21.87
2019-04-16T14:57:22.143Z,10.43
2019-04-16T15:00:01.927Z,13.83
2019-04-16T15:02:34.508Z,14.67
2019-04-16T15:05:09.879Z,14.93
2019-04-16T15:07:55.987Z,12.83
2019-04-16T15:10:42.002Z,10.20
2019-04-16T15:13:15.857Z,15.20
2019-04-16T15:15:49.472Z,14.03
2019-04-16T15:18:26.583Z,10.17
2019-04-16T15:21:03.623Z,12.37
2019-04-16T15:23:37.650Z,10.53
2019-04-16T15:26:11.683Z,12.57
2019-04-16T15:28:51.943Z,11.37
2019-04-16T15:31:22.890Z,13.97
2019-04-16T15:33:53.829Z,12.47
2019-04-16T15:36:24.758Z,15.40
2019-04-16T15:39:03.988Z,9.33
2019-04-16T15:41:35.488Z,14.50
2019-04-16T15:44:09.696Z,14.43
2019-04-16T15:46:41.324Z,12.53
2019-04-16T15:49:28.236Z,11.47
2019-04-16T15:52:14.164Z,15.77
2019-04-16T15:54:50.792Z,16.90
2019-04-16T15:57:37.096Z,15.13
2019-04-16T16:00:24.918Z,18.43
2019-04-16T16:03:12.218Z,13.53
2019-04-16T16:05:49.093Z,12.87
2019-04-16T16:08:26.943Z,12.60
2019-04-16T16:10:58.808Z,15.93
2019-04-16T16:13:28.089Z,14.17
2019-04-16T16:15:57.580Z,14.40
2019-04-16T16:18:27.045Z,16.13
2019-04-16T16:20:56.320Z,14.13
2019-04-16T16:23:25.607Z,9.33
2019-04-16T16:25:54.888Z,16.97
2019-04-16T16:28:25.222Z,9.43
2019-04-16T16:30:54.522Z,13.33
2019-04-16T16:33:23.813Z,12.53
2019-04-16T16:35:58.596Z,11.73
2019-04-16T16:38:24.077Z,9.30
2019-04-16T16:40:54.444Z,17.43
2019-04-16T16:43:23.789Z,23.13
2019-04-16T16:45:54.713Z,70.97
2019-04-16T16:48:24.865Z,20.80
2019-04-16T16:50:54.254Z,15.83
2019-04-16T16:53:34.229Z,11.30
2019-04-16T16:56:07.927Z,10.63
2019-04-16T16:58:57.309Z,11.50
2019-04-16T17:01:46.376Z,8.10
2019-04-16T17:04:23.334Z,12.23
2019-04-16T17:06:58.905Z,4.63
2019-04-16T17:09:31.049Z,9.67
2019-04-16T17:12:00.710Z,6.47
2019-04-16T17:14:29.973Z,6.87
2019-04-16T17:17:11.916Z,4.13
2019-04-16T17:19:30.865Z,3.87
2019-04-16T17:22:00.161Z,4.17
2019-04-16T17:24:29.453Z,8.13
2019-04-16T17:26:58.773Z,3.57
2019-04-16T17:29:29.262Z,9.37
2019-04-16T17:31:58.626Z,2.43
2019-04-16T17:34:27.897Z,3.00
2019-04-16T17:36:57.157Z,4.07
2019-04-16T17:39:42.579Z,2.63
2019-04-16T17:42:12.869Z,2.13
2019-04-16T17:45:00.357Z,3.20
2019-04-16T17:47:34.208Z,5.83
2019-04-16T17:50:05.667Z,7.57
2019-04-16T17:52:48.615Z,3.13
2019-04-16T17:55:19.585Z,6.77
2019-04-16T17:57:59.748Z,6.53
2019-04-16T18:00:30.853Z,8.40
2019-04-16T18:03:04.080Z,4.70
2019-04-16T18:05:49.621Z,4.93
2019-04-16T18:08:26.504Z,4.30
2019-04-16T18:11:06.123Z,7.10
2019-04-16T18:13:44.948Z,3.70
2019-04-16T18:16:19.764Z,3.83
2019-04-16T18:18:51.500Z,4.23
2019-04-16T18:21:40.793Z,4.13
2019-04-16T18:24:23.968Z,4.43
2019-04-16T18:27:11.422Z,6.20
2019-04-16T18:30:05.210Z,4.33
2019-04-16T18:32:50.379Z,7.00
2019-04-16T18:35:21.410Z,14.70
2019-04-16T18:37:54.982Z,6.07
2019-04-16T18:40:40.979Z,7.60
2019-04-16T18:43:18.021Z,9.87
2019-04-16T18:45:52.324Z,8.00
2019-04-16T18:48:37.612Z,4.90
2019-04-16T18:51:06.962Z,8.10
2019-04-16T18:53:36.251Z,4.20
2019-04-16T18:56:05.577Z,5.57
2019-04-16T18:58:35.926Z,7.50
2019-04-16T19:01:09.672Z,4.60
2019-04-16T19:03:38.948Z,11.07
2019-04-16T19:06:08.394Z,7.67
2019-04-16T19:08:42.154Z,10.13
2019-04-16T19:11:08.798Z,9.23
2019-04-16T19:13:38.143Z,7.33
2019-04-16T19:16:07.458Z,3.13
2019-04-16T19:18:36.721Z,6.47
2019-04-16T19:21:06.078Z,3.63
2019-04-16T19:23:35.354Z,2.03
2019-04-16T19:26:04.648Z,5.10
2019-04-16T19:28:36.373Z,4.50
2019-04-16T19:31:04.972Z,3.13
2019-04-16T19:33:38.126Z,6.33
2019-04-16T19:36:05.528Z,4.87
2019-04-16T19:38:35.882Z,2.67
2019-04-16T19:41:05.858Z,3.50
2019-04-16T19:43:35.688Z,5.00
2019-04-16T19:46:05.025Z,7.83
2019-04-16T19:48:36.053Z,4.03
2019-04-16T19:51:08.951Z,4.00
2019-04-16T19:53:38.456Z,3.57
2019-04-16T19:56:07.846Z,4.37
2019-04-16T19:58:37.124Z,10.40
2019-04-16T20:01:11.985Z,3.97
2019-04-16T20:03:43.428Z,3.47
2019-04-16T20:06:11.732Z,4.53
2019-04-16T20:08:41.061Z,3.97
2019-04-16T20:11:10.341Z,5.70
2019-04-16T20:13:39.611Z,4.43
2019-04-16T20:16:08.912Z,3.77
2019-04-16T20:18:50.307Z,5.77
2019-04-16T20:21:09.169Z,4.90
2019-04-16T20:23:38.478Z,4.40
2019-04-16T20:26:07.742Z,6.13
2019-04-16T20:28:37.037Z,4.37
2019-04-16T20:31:06.320Z,4.30
2019-04-16T20:33:35.612Z,6.00
2019-04-16T20:36:04.963Z,4.70
2019-04-16T20:38:34.300Z,4.67
2019-04-16T20:41:03.770Z,5.47
2019-04-16T20:43:33.132Z,7.00
2019-04-16T20:46:02.412Z,7.03
2019-04-16T20:48:31.702Z,7.17
2019-04-16T20:51:00.969Z,8.07
2019-04-16T20:53:30.248Z,7.77
2019-04-16T20:55:59.896Z,8.47
2019-04-16T20:58:31.552Z,5.90
2019-04-16T21:01:01.234Z,6.77
2019-04-16T21:03:31.698Z,11.27
2019-04-16T21:06:01.118Z,11.40
2019-04-16T21:08:30.627Z,12.40
2019-04-16T21:11:00.089Z,8.20
2019-04-16T21:13:29.714Z,7.93
2019-04-16T21:16:01.710Z,8.50
2019-04-16T21:18:30.130Z,6.13
2019-04-16T21:20:59.669Z,5.87
2019-04-16T21:23:31.889Z,5.10
2019-04-16T21:26:00.008Z,6.33
2019-04-16T21:28:36.634Z,6.83
2019-04-16T21:31:12.967Z,9.23
2019-04-16T21:33:52.269Z,7.13
2019-04-16T21:36:40.622Z,8.70
2019-04-16T21:39:26.317Z,9.43
2019-04-16T21:42:00.765Z,7.57
2019-04-16T21:44:26.571Z,10.63
2019-04-16T21:46:58.162Z,9.03
2019-04-16T21:49:38.345Z,7.27
2019-04-16T21:52:07.009Z,8.73
2019-04-16T21:54:38.266Z,7.97
2019-04-16T21:57:12.920Z,6.87
2019-04-16T21:59:39.737Z,8.87
2019-04-16T22:02:22.558Z,6.30
2019-04-16T22:04:52.028Z,8.27
2019-04-16T22:07:24.324Z,6.80
2019-04-16T22:09:52.360Z,7.60
2019-04-16T22:12:21.628Z,6.23
2019-04-16T22:14:54.015Z,6.50
2019-04-16T22:17:21.952Z,5.20
2019-04-16T22:19:54.171Z,5.37
2019-04-16T22:22:22.213Z,7.03
2019-04-16T22:24:51.746Z,7.00
2019-04-16T22:27:22.460Z,8.40
2019-04-16T22:29:51.749Z,4.53
2019-04-16T22:32:21.021Z,8.87
2019-04-16T22:34:50.296Z,5.57
2019-04-16T22:37:19.586Z,5.80
2019-04-16T22:39:59.064Z,5.03
2019-04-16T22:42:30.597Z,5.53
2019-04-16T22:45:07.677Z,8.00
2019-04-16T22:47:38.588Z,6.03
2019-04-16T22:50:16.032Z,5.10
2019-04-16T22:52:41.630Z,6.97
2019-04-16T22:55:09.937Z,6.50
2019-04-16T22:57:39.246Z,5.90
2019-04-16T23:00:12.923Z,8.27
2019-04-16T23:02:48.084Z,6.10
2019-04-16T23:05:13.887Z,7.43
2019-04-16T23:07:43.193Z,6.90
2019-04-16T23:10:12.531Z,6.53
2019-04-16T23:12:41.853Z,7.93
2019-04-16T23:15:12.989Z,5.33
2019-04-16T23:17:42.775Z,5.67
2019-04-16T23:20:28.175Z,7.30
2019-04-16T23:22:46.530Z,4.40
2019-04-16T23:25:15.255Z,5.43
2019-04-16T23:27:44.540Z,6.87
2019-04-16T23:30:15.732Z,5.33
2019-04-16T23:32:44.925Z,6.93
2019-04-16T23:35:14.196Z,6.47
2019-04-16T23:37:43.480Z,5.63
2019-04-16T23:40:12.748Z,6.13
2019-04-16T23:42:43.702Z,14.43
2019-04-16T23:45:17.252Z,4.90
2019-04-16T23:47:48.174Z,5.60
2019-04-16T23:50:27.905Z,9.37
2019-04-16T23:53:09.010Z,4.73
2019-04-16T23:55:53.381Z,6.30
2019-04-16T23:58:28.551Z,5.97
